Time;durP1;ratioP1;P1;durP2;ratioP2;P2;SDS_P1;SDS_P2;PMS_P1;PMS_P2;Temp;Humidity;BMP_temperature;BMP_pressure;BME280_temperature;BME280_humidity;BME280_pressure;Samples;Min_cycle;Max_cycle;Signal;HPM_P1;HPM_P2
2023/12/22 00:02:23;;;;;;;14.03;9.00;;;;;;;2.25;79.41;95494.72;4949392;28;20197;-73
2023/12/22 00:04:50;;;;;;;13.17;8.13;;;;;;;2.51;78.50;95484.34;4948527;28;20201;-78
2023/12/22 00:07:20;;;;;;;15.10;7.77;;;;;;;2.22;78.88;95472.72;4947399;28;20382;-74
2023/12/22 00:09:47;;;;;;;13.97;8.63;;;;;;;2.33;78.81;95477.38;4949082;28;20190;-73
2023/12/22 00:12:14;;;;;;;14.47;9.50;;;;;;;2.32;79.27;95484.25;4947934;28;20194;-74
2023/12/22 00:14:42;;;;;;;13.13;8.53;;;;;;;2.25;79.29;95485.34;4949180;28;20201;-79
2023/12/22 00:17:09;;;;;;;14.43;9.07;;;;;;;2.14;79.64;95466.25;4947727;28;20560;-75
2023/12/22 00:19:36;;;;;;;16.67;10.33;;;;;;;2.28;78.96;95482.69;4947592;28;20221;-75
2023/12/22 00:22:03;;;;;;;17.43;10.23;;;;;;;1.94;77.89;95415.13;4946678;28;20189;-75
2023/12/22 00:24:31;;;;;;;24.77;11.17;;;;;;;2.37;77.47;95461.06;4948422;28;20190;-73
2023/12/22 00:26:58;;;;;;;30.13;11.33;;;;;;;2.60;77.29;95486.53;4946523;28;20212;-77
2023/12/22 00:29:25;;;;;;;16.37;10.83;;;;;;;2.59;77.64;95482.31;4947780;28;20284;-78
2023/12/22 00:31:52;;;;;;;20.97;12.33;;;;;;;2.51;76.81;95463.91;4948943;28;20193;-77
2023/12/22 00:34:21;;;;;;;23.43;11.90;;;;;;;2.63;76.73;95454.91;4947828;28;20598;-77
2023/12/22 00:36:48;;;;;;;20.97;11.00;;;;;;;2.80;75.92;95461.03;4948897;28;20712;-78
2023/12/22 00:39:15;;;;;;;21.47;11.43;;;;;;;2.60;75.33;95432.06;4947670;28;20221;-78
2023/12/22 00:41:42;;;;;;;17.90;12.53;;;;;;;2.76;76.00;95451.78;4948316;28;20393;-73
2023/12/22 00:44:09;;;;;;;19.03;11.07;;;;;;;2.71;76.12;95435.00;4948473;28;20197;-77
2023/12/22 00:46:36;;;;;;;17.40;10.80;;;;;;;2.65;75.73;95419.91;4945951;28;20232;-73
2023/12/22 00:49:03;;;;;;;21.13;12.13;;;;;;;2.79;75.41;95456.78;4948661;28;20649;-73
2023/12/22 00:51:30;;;;;;;22.57;12.70;;;;;;;2.82;75.67;95458.41;4947195;28;20334;-75
2023/12/22 00:53:57;;;;;;;31.30;14.90;;;;;;;2.77;75.77;95461.13;4948735;28;20225;-75
2023/12/22 00:56:24;;;;;;;28.17;14.70;;;;;;;2.77;75.24;95444.97;4947652;28;20224;-72
2023/12/22 00:58:51;;;;;;;20.83;12.60;;;;;;;2.55;75.32;95441.63;4949491;28;20200;-75
2023/12/22 01:01:31;;;;;;;18.87;10.53;;;;;;;2.46;75.64;95425.78;4953916;28;20225;-71
2023/12/22 01:03:59;;;;;;;19.67;12.57;;;;;;;2.27;75.50;95429.94;4953988;28;20197;-75
2023/12/22 01:06:26;;;;;;;19.10;11.07;;;;;;;2.04;77.64;95444.50;4963214;28;20353;-74
2023/12/22 01:08:57;;;;;;;18.60;10.43;;;;;;;2.27;76.92;95429.09;4948180;28;20199;-72
2023/12/22 01:11:24;;;;;;;20.50;11.27;;;;;;;2.36;76.66;95419.38;4948974;28;20552;-74
2023/12/22 01:13:51;;;;;;;19.97;12.93;;;;;;;2.38;76.72;95416.75;4948173;28;20193;-74
2023/12/22 01:16:21;;;;;;;22.10;11.77;;;;;;;2.44;76.27;95411.41;4948344;28;20715;-75
2023/12/22 01:18:48;;;;;;;19.50;11.63;;;;;;;2.66;75.14;95406.25;4948535;28;20212;-73
2023/12/22 01:21:17;;;;;;;21.13;11.73;;;;;;;2.58;74.63;95401.44;4947295;28;20272;-76
2023/12/22 01:23:44;;;;;;;16.87;10.70;;;;;;;2.84;74.33;95396.09;4949636;28;20197;-72
2023/12/22 01:26:11;;;;;;;15.47;10.00;;;;;;;2.63;74.80;95394.44;4948461;28;20201;-72
2023/12/22 01:28:38;;;;;;;16.00;9.37;;;;;;;2.09;75.72;95388.97;4948368;28;20217;-73
2023/12/22 01:31:05;;;;;;;15.40;9.40;;;;;;;2.17;76.61;95372.47;4947463;28;20653;-73
2023/12/22 01:33:32;;;;;;;17.37;10.33;;;;;;;2.11;76.83;95377.00;4947915;28;20193;-75
2023/12/22 01:35:59;;;;;;;23.13;8.53;;;;;;;2.14;76.76;95377.69;4948278;28;20692;-71
2023/12/22 01:38:26;;;;;;;13.77;9.63;;;;;;;1.78;78.60;95375.75;4949069;28;20713;-73
2023/12/22 01:40:53;;;;;;;15.47;10.07;;;;;;;1.57;79.89;95374.84;4951735;28;20255;-71
2023/12/22 01:43:21;;;;;;;16.47;10.73;;;;;;;1.70;79.80;95370.94;4950326;28;20288;-74
2023/12/22 01:45:55;;;;;;;16.57;10.20;;;;;;;1.67;79.32;95368.50;4951752;28;20652;-72
2023/12/22 01:48:23;;;;;;;15.40;9.07;;;;;;;1.70;79.08;95358.19;4950543;28;20886;-72
2023/12/22 01:50:52;;;;;;;18.63;10.70;;;;;;;1.44;80.36;95359.16;4951267;28;20726;-75
2023/12/22 01:53:20;;;;;;;20.60;10.73;;;;;;;1.69;80.31;95353.16;4951496;28;20201;-73
2023/12/22 01:55:50;;;;;;;18.27;10.10;;;;;;;1.82;78.82;95349.22;4950175;28;20208;-74
2023/12/22 01:58:18;;;;;;;18.13;10.67;;;;;;;2.06;78.45;95350.81;4950145;28;20208;-74
2023/12/22 02:00:46;;;;;;;18.63;11.23;;;;;;;2.03;78.40;95345.84;4948578;28;20232;-74
2023/12/22 02:03:14;;;;;;;17.03;10.60;;;;;;;1.98;78.98;95350.31;4951719;28;20704;-77
2023/12/22 02:05:42;;;;;;;19.33;10.50;;;;;;;1.92;79.37;95328.38;4948821;28;20201;-72
2023/12/22 02:08:09;;;;;;;18.37;10.20;;;;;;;1.94;79.07;95341.09;4950726;28;20189;-76
2023/12/22 02:10:37;;;;;;;18.67;9.93;;;;;;;2.04;80.03;95337.28;4933580;28;20633;-71
2023/12/22 02:13:05;;;;;;;15.57;10.47;;;;;;;2.10;79.01;95344.72;4949979;28;20201;-77
2023/12/22 02:15:33;;;;;;;20.40;10.60;;;;;;;2.25;79.44;95327.03;4949852;28;20209;-73
2023/12/22 02:18:16;;;;;;;18.47;10.70;;;;;;;2.12;77.83;95305.44;4949961;28;20745;-76
2023/12/22 02:20:44;;;;;;;17.73;9.87;;;;;;;1.85;79.56;95309.13;4951196;28;20228;-76
2023/12/22 02:23:11;;;;;;;16.33;10.03;;;;;;;1.85;80.09;95321.88;4950204;28;20284;-77
2023/12/22 02:25:38;;;;;;;18.90;10.47;;;;;;;2.03;79.37;95326.25;4950652;28;20260;-77
2023/12/22 02:28:09;;;;;;;17.27;9.73;;;;;;;2.13;79.25;95289.25;4950752;28;20711;-78
2023/12/22 02:30:45;;;;;;;18.03;10.67;;;;;;;2.39;77.71;95308.59;4949663;28;20201;-77
2023/12/22 02:33:15;;;;;;;17.80;10.50;;;;;;;2.24;77.74;95309.22;4950932;28;20199;-72
2023/12/22 02:35:45;;;;;;;15.43;9.60;;;;;;;2.10;78.52;95296.22;4932261;28;20288;-74
2023/12/22 02:38:13;;;;;;;16.40;10.40;;;;;;;2.21;78.21;95307.63;4950578;28;20223;-73
2023/12/22 02:40:40;;;;;;;15.47;9.40;;;;;;;2.24;77.39;95304.97;4950137;28;20324;-74
2023/12/22 02:43:09;;;;;;;20.27;11.03;;;;;;;2.19;78.26;95295.81;4949616;28;20197;-72
2023/12/22 02:45:36;;;;;;;18.03;10.80;;;;;;;2.16;78.91;95303.59;4950447;28;20221;-71
2023/12/22 02:48:03;;;;;;;20.53;10.63;;;;;;;2.36;78.47;95307.00;4949059;28;20256;-71
2023/12/22 02:50:30;;;;;;;18.93;10.97;;;;;;;2.46;77.47;95298.06;4949444;28;20702;-72
2023/12/22 02:52:58;;;;;;;17.10;10.17;;;;;;;2.25;77.42;95252.97;4949016;28;20247;-73
2023/12/22 02:55:25;;;;;;;18.20;10.50;;;;;;;2.71;76.21;95312.34;4950418;28;20236;-73
2023/12/22 02:57:52;;;;;;;21.57;12.20;;;;;;;2.83;76.04;95301.56;4948566;28;20197;-72
2023/12/22 03:00:20;;;;;;;19.97;11.77;;;;;;;2.83;74.73;95281.97;4949310;28;20304;-73
2023/12/22 03:02:47;;;;;;;20.73;11.13;;;;;;;2.86;75.19;95276.72;4950189;28;20193;-75
2023/12/22 03:05:14;;;;;;;14.07;9.40;;;;;;;2.53;75.98;95277.34;4948820;28;20289;-73
2023/12/22 03:07:41;;;;;;;16.33;9.77;;;;;;;2.36;77.19;95262.75;4950286;28;20197;-74
2023/12/22 03:10:08;;;;;;;17.33;10.07;;;;;;;2.23;77.12;95238.63;4948805;28;20680;-73
2023/12/22 03:12:35;;;;;;;17.07;10.23;;;;;;;2.40;76.81;95260.00;4950288;28;20191;-72
2023/12/22 03:15:03;;;;;;;15.57;9.80;;;;;;;2.49;76.96;95261.34;4949531;28;20281;-72
2023/12/22 03:17:32;;;;;;;21.53;12.07;;;;;;;2.70;76.98;95275.72;4948215;28;20197;-75
2023/12/22 03:19:59;;;;;;;20.80;12.63;;;;;;;2.79;76.81;95283.00;4949897;28;20308;-74
2023/12/22 03:22:26;;;;;;;18.60;10.33;;;;;;;2.79;75.87;95280.44;4948719;28;20225;-72
2023/12/22 03:24:53;;;;;;;22.73;10.93;;;;;;;2.80;75.49;95259.13;4949986;28;20205;-75
2023/12/22 03:27:20;;;;;;;17.27;9.67;;;;;;;2.93;75.34;95273.00;4948652;28;20273;-73
2023/12/22 03:29:48;;;;;;;17.67;8.87;;;;;;;2.64;75.18;95276.00;4950154;28;20281;-71
2023/12/22 03:32:15;;;;;;;16.63;9.70;;;;;;;2.28;77.42;95278.41;4950112;28;20189;-73
2023/12/22 03:34:42;;;;;;;14.67;8.53;;;;;;;2.24;77.68;95270.94;4949449;28;20197;-72
2023/12/22 03:37:09;;;;;;;14.67;8.60;;;;;;;2.25;77.57;95260.63;4949598;28;20196;-74
2023/12/22 03:39:36;;;;;;;17.40;9.83;;;;;;;2.45;77.03;95257.25;4948311;28;20205;-73
2023/12/22 03:42:03;;;;;;;13.60;8.60;;;;;;;2.64;76.68;95270.06;4948169;28;20230;-72
2023/12/22 03:44:30;;;;;;;17.70;10.13;;;;;;;2.78;75.75;95267.75;4948083;28;20202;-72
2023/12/22 03:46:57;;;;;;;14.80;9.67;;;;;;;2.64;76.08;95265.75;4949391;28;20201;-72
2023/12/22 03:49:25;;;;;;;17.00;10.17;;;;;;;2.79;75.97;95266.81;4947075;28;20276;-74
2023/12/22 03:51:52;;;;;;;20.23;11.20;;;;;;;2.91;75.97;95266.28;4949041;28;20193;-74
2023/12/22 03:54:19;;;;;;;11.87;8.53;;;;;;;2.74;75.85;95256.81;4949231;28;20197;-72
2023/12/22 03:56:47;;;;;;;18.37;9.37;;;;;;;2.59;75.95;95254.94;4946702;28;20197;-72
2023/12/22 03:59:18;;;;;;;15.73;9.97;;;;;;;2.66;77.07;95251.19;4932014;29;20193;-73
2023/12/22 04:01:52;;;;;;;14.23;8.70;;;;;;;2.62;76.74;95252.22;4947495;28;20762;-72
2023/12/22 04:04:19;;;;;;;18.80;9.60;;;;;;;2.74;77.10;95253.44;4916498;29;20201;-73
2023/12/22 04:06:47;;;;;;;16.20;9.43;;;;;;;2.83;75.83;95240.22;4948343;28;20468;-73
2023/12/22 04:09:14;;;;;;;144.57;25.93;;;;;;;3.07;76.22;95255.31;4949064;28;20240;-74
2023/12/22 04:11:41;;;;;;;88.23;18.87;;;;;;;3.07;74.91;95242.50;4949109;28;20190;-76
2023/12/22 04:14:08;;;;;;;55.40;14.67;;;;;;;3.13;75.30;95264.44;4948355;28;20229;-75
2023/12/22 04:16:38;;;;;;;20.27;10.10;;;;;;;3.24;74.12;95264.75;4949262;28;20229;-72
2023/12/22 04:19:05;;;;;;;33.17;14.40;;;;;;;3.27;74.26;95262.09;4947578;28;20215;-72
2023/12/22 04:21:38;;;;;;;21.17;11.53;;;;;;;3.38;74.02;95275.19;4963777;28;20327;-76
2023/12/22 04:24:05;;;;;;;22.87;9.80;;;;;;;3.27;74.13;95267.19;4948079;28;20217;-72
2023/12/22 04:26:33;;;;;;;19.73;10.77;;;;;;;2.98;74.83;95258.28;4948585;28;20284;-71
2023/12/22 04:29:00;;;;;;;19.03;10.03;;;;;;;2.84;75.28;95270.84;4949020;28;20196;-73
2023/12/22 04:31:27;;;;;;;12.93;8.40;;;;;;;2.62;76.06;95252.22;4946364;28;20197;-72
2023/12/22 04:33:56;;;;;;;15.77;7.80;;;;;;;2.21;77.09;95237.84;4949079;28;20788;-73
2023/12/22 04:36:23;;;;;;;15.97;8.53;;;;;;;2.33;77.70;95256.03;4946026;28;20205;-73
2023/12/22 04:38:50;;;;;;;15.00;7.43;;;;;;;2.33;77.35;95256.03;4948948;28;20289;-74
2023/12/22 04:41:17;;;;;;;13.10;7.13;;;;;;;2.19;77.84;95255.78;4947673;28;20232;-72
2023/12/22 04:43:44;;;;;;;13.13;8.10;;;;;;;2.33;78.16;95252.66;4948480;28;20698;-72
2023/12/22 04:46:12;;;;;;;12.77;7.80;;;;;;;2.24;77.94;95255.59;4948540;28;20221;-76
2023/12/22 04:48:39;;;;;;;12.67;7.63;;;;;;;2.48;77.83;95257.09;4947864;28;20285;-76
2023/12/22 04:51:09;;;;;;;10.43;7.73;;;;;;;2.23;78.63;95246.28;4948685;28;20193;-72
2023/12/22 04:53:36;;;;;;;15.20;7.50;;;;;;;2.19;78.15;95250.69;4947478;28;20193;-76
2023/12/22 04:56:03;;;;;;;12.70;7.47;;;;;;;2.38;78.14;95253.28;4949055;28;20502;-78
2023/12/22 04:58:31;;;;;;;14.23;8.00;;;;;;;2.18;78.53;95232.88;4947441;28;20189;-75
2023/12/22 05:00:59;;;;;;;18.80;8.97;;;;;;;2.40;78.34;95256.59;4948112;28;20256;-76
2023/12/22 05:03:26;;;;;;;10.67;7.60;;;;;;;2.44;78.25;95260.69;4947197;28;20653;-76
2023/12/22 05:05:53;;;;;;;11.37;7.40;;;;;;;2.28;78.73;95246.91;4947400;28;20582;-75
2023/12/22 05:08:20;;;;;;;12.77;8.27;;;;;;;2.28;79.17;95252.03;4948443;28;20663;-75
2023/12/22 05:10:48;;;;;;;12.53;8.33;;;;;;;2.08;78.78;95229.06;4947462;28;20224;-73
2023/12/22 05:13:15;;;;;;;17.37;9.03;;;;;;;2.33;78.34;95252.66;4948898;28;20225;-74
2023/12/22 05:15:43;;;;;;;13.37;8.90;;;;;;;2.28;78.01;95231.59;4950961;28;20199;-73
2023/12/22 05:18:10;;;;;;;18.20;9.20;;;;;;;2.36;78.85;95245.72;4950626;28;20289;-73
2023/12/22 05:20:37;;;;;;;13.97;8.83;;;;;;;2.46;78.18;95246.13;4951653;28;20307;-73
2023/12/22 05:23:04;;;;;;;18.53;10.93;;;;;;;2.62;78.06;95247.13;4965411;28;20223;-74
2023/12/22 05:25:32;;;;;;;19.27;12.33;;;;;;;2.78;77.49;95243.00;4970910;28;20671;-74
2023/12/22 05:27:59;;;;;;;25.03;14.17;;;;;;;2.79;76.45;95216.56;4984535;28;20191;-75
2023/12/22 05:30:26;;;;;;;19.77;13.97;;;;;;;2.80;76.22;95218.22;4971179;28;20428;-72
2023/12/22 05:32:54;;;;;;;21.70;14.20;;;;;;;2.95;76.47;95229.47;4969797;28;20210;-74
2023/12/22 05:35:21;;;;;;;22.50;15.83;;;;;;;3.13;75.63;95215.84;4969310;28;20210;-72
2023/12/22 05:37:49;;;;;;;23.33;14.23;;;;;;;3.21;76.17;95212.03;4970070;28;20731;-75
2023/12/22 05:40:16;;;;;;;24.87;15.33;;;;;;;3.27;75.93;95221.16;4968449;28;20674;-74
2023/12/22 05:42:43;;;;;;;25.77;15.83;;;;;;;3.11;75.89;95198.00;4970583;28;20209;-73
2023/12/22 05:45:11;;;;;;;26.33;16.07;;;;;;;3.18;75.15;95211.34;4968081;28;20189;-74
2023/12/22 05:47:38;;;;;;;28.80;18.00;;;;;;;3.06;75.98;95217.88;4970433;28;20216;-72
2023/12/22 05:50:07;;;;;;;32.43;18.93;;;;;;;2.99;75.72;95211.34;4968201;28;20281;-74
2023/12/22 05:52:34;;;;;;;29.43;17.93;;;;;;;3.05;75.63;95200.84;4970493;28;20205;-75
2023/12/22 05:55:02;;;;;;;33.93;18.00;;;;;;;3.14;75.29;95218.34;4970059;28;20204;-76
2023/12/22 05:57:30;;;;;;;33.50;19.07;;;;;;;3.19;76.09;95220.69;4953023;28;20211;-75
2023/12/22 05:59:58;;;;;;;30.43;17.37;;;;;;;3.14;75.63;95223.44;4969510;28;20245;-72
2023/12/22 06:02:26;;;;;;;40.20;19.73;;;;;;;2.96;76.01;95215.78;4971098;28;20216;-71
2023/12/22 06:04:53;;;;;;;40.77;19.63;;;;;;;2.99;76.51;95225.84;4970507;28;20204;-73
2023/12/22 06:07:20;;;;;;;33.97;17.00;;;;;;;2.83;76.65;95225.72;4968883;28;20192;-73
2023/12/22 06:09:48;;;;;;;27.90;15.10;;;;;;;2.71;77.07;95231.41;4968675;28;20197;-74
2023/12/22 06:12:15;;;;;;;19.97;13.27;;;;;;;2.75;76.92;95197.16;4952463;28;20196;-72
2023/12/22 06:14:42;;;;;;;21.20;13.03;;;;;;;2.99;76.75;95224.13;4968783;28;20192;-74
2023/12/22 06:17:10;;;;;;;17.97;11.87;;;;;;;2.99;77.14;95201.13;4984430;28;20208;-74
2023/12/22 06:19:37;;;;;;;31.53;16.43;;;;;;;2.98;76.60;95186.72;4969322;28;20260;-73
2023/12/22 06:22:05;;;;;;;22.87;14.33;;;;;;;3.01;76.63;95157.63;4970144;28;20223;-75
2023/12/22 06:24:35;;;;;;;27.67;16.70;;;;;;;3.40;76.75;95226.53;4971546;28;20628;-74
2023/12/22 06:27:06;;;;;;;33.07;18.83;;;;;;;3.42;76.38;95210.19;4975685;28;20192;-74
2023/12/22 06:29:33;;;;;;;29.33;15.47;;;;;;;3.47;76.33;95227.88;4968016;28;20202;-75
2023/12/22 06:32:03;;;;;;;30.03;16.40;;;;;;;3.40;76.65;95200.94;4970229;28;20207;-74
2023/12/22 06:34:32;;;;;;;28.97;14.77;;;;;;;3.44;76.17;95223.75;4969564;28;20220;-74
2023/12/22 06:37:01;;;;;;;27.17;15.80;;;;;;;3.58;75.80;95225.66;4951650;28;20219;-75
2023/12/22 06:39:28;;;;;;;27.43;15.57;;;;;;;3.36;76.60;95207.91;4970221;28;20539;-76
2023/12/22 06:41:57;;;;;;;43.83;20.80;;;;;;;3.43;76.31;95199.06;4967543;28;20227;-77
2023/12/22 06:44:26;;;;;;;30.53;19.70;;;;;;;3.68;75.85;95221.75;4970116;28;20714;-76
2023/12/22 06:46:55;;;;;;;32.03;16.20;;;;;;;3.78;74.94;95218.69;4969138;28;20540;-76
2023/12/22 06:49:22;;;;;;;48.07;16.70;;;;;;;3.76;75.45;95200.00;4968410;28;20284;-76
2023/12/22 06:51:50;;;;;;;48.27;16.93;;;;;;;3.93;75.36;95219.66;4968414;28;20200;-77
2023/12/22 06:54:17;;;;;;;26.97;16.50;;;;;;;3.95;75.29;95215.28;4968849;28;20204;-79
2023/12/22 06:56:44;;;;;;;28.17;17.30;;;;;;;3.87;74.84;95223.38;4969858;28;20252;-76
2023/12/22 06:59:12;;;;;;;30.47;17.10;;;;;;;3.52;76.50;95224.22;4971534;28;20185;-77
2023/12/22 07:01:44;;;;;;;37.10;18.03;;;;;;;3.73;76.49;95212.94;4972242;28;20236;-77
2023/12/22 07:04:27;;;;;;;32.27;19.00;;;;;;;3.48;76.66;95203.97;4968776;28;20645;-76
2023/12/22 07:06:54;;;;;;;26.27;16.13;;;;;;;2.95;78.96;95179.16;4968953;28;20199;-76
2023/12/22 07:09:28;;;;;;;30.50;15.23;;;;;;;2.87;79.80;95216.19;4952815;28;20207;-73
2023/12/22 07:11:58;;;;;;;28.57;15.03;;;;;;;2.88;80.79;95203.38;4968228;28;20189;-75
2023/12/22 07:14:25;;;;;;;32.00;15.97;;;;;;;3.15;80.06;95191.84;4968326;28;20576;-74
2023/12/22 07:16:53;;;;;;;25.57;15.40;;;;;;;3.38;77.91;95187.41;4950430;28;20200;-73
2023/12/22 07:19:20;;;;;;;30.83;15.97;;;;;;;3.03;77.91;95177.09;4983672;28;20300;-72
2023/12/22 07:21:48;;;;;;;34.33;16.40;;;;;;;3.17;77.95;95200.28;4966982;28;20243;-72
2023/12/22 07:24:16;;;;;;;28.70;16.43;;;;;;;3.22;77.62;95198.34;4966808;28;20240;-73
2023/12/22 07:26:44;;;;;;;27.67;14.63;;;;;;;3.16;76.59;95193.53;4968656;28;20185;-71
2023/12/22 07:29:12;;;;;;;23.83;13.97;;;;;;;3.07;77.71;95182.91;4966658;28;20722;-73
2023/12/22 07:31:40;;;;;;;18.63;12.13;;;;;;;3.20;77.38;95210.38;4968860;28;20269;-73
2023/12/22 07:34:10;;;;;;;22.23;13.70;;;;;;;3.13;77.64;95193.66;4968185;28;20189;-76
2023/12/22 07:36:38;;;;;;;24.83;13.93;;;;;;;3.33;78.23;95202.13;4968377;28;20276;-78
2023/12/22 07:39:18;;;;;;;26.83;15.20;;;;;;;3.45;77.50;95219.44;4968508;28;20189;-78
2023/12/22 07:41:46;;;;;;;32.33;15.30;;;;;;;3.75;77.03;95212.88;4967526;28;20220;-76
2023/12/22 07:44:13;;;;;;;27.07;15.77;;;;;;;3.70;77.51;95207.16;4968735;28;20556;-75
2023/12/22 07:46:41;;;;;;;27.53;15.47;;;;;;;3.79;77.02;95210.09;4967837;28;20227;-74
2023/12/22 07:49:10;;;;;;;26.63;15.00;;;;;;;3.72;77.32;95228.38;4951402;28;20201;-76
2023/12/22 07:51:39;;;;;;;22.70;13.67;;;;;;;3.77;77.66;95211.88;4967409;28;20196;-75
2023/12/22 07:54:08;;;;;;;21.67;13.50;;;;;;;3.62;77.85;95216.94;4968405;28;20192;-75
2023/12/22 07:57:06;;;;;;;19.53;13.27;;;;;;;3.80;77.79;95221.16;4966330;28;20241;-74
2023/12/22 07:59:34;;;;;;;17.73;11.40;;;;;;;3.54;78.81;95214.75;4982694;28;20212;-77
2023/12/22 08:02:02;;;;;;;22.07;13.67;;;;;;;3.67;79.58;95235.47;4970882;28;20307;-73
2023/12/22 08:04:31;;;;;;;18.30;12.30;;;;;;;3.85;78.52;95219.22;4951451;28;20292;-73
2023/12/22 08:07:42;;;;;;;18.97;13.73;;;;;;;3.72;77.91;95162.66;4968090;28;20181;-75
2023/12/22 08:11:04;;;;;;;26.70;14.47;;;;;;;4.04;76.76;95210.53;4968210;28;20652;-73
2023/12/22 08:14:26;;;;;;;23.57;13.83;;;;;;;4.34;77.32;95226.13;4965448;28;20208;-74
2023/12/22 08:17:51;;;;;;;22.80;13.23;;;;;;;4.42;76.64;95235.97;4964968;28;20216;-73
2023/12/22 08:21:12;;;;;;;20.73;12.37;;;;;;;4.57;75.56;95233.47;4967235;28;20741;-75
2023/12/22 08:24:34;;;;;;;17.97;11.27;;;;;;;4.65;74.76;95233.91;4951985;28;20739;-73
2023/12/22 08:27:17;;;;;;;22.23;12.10;;;;;;;4.81;72.92;95229.63;4943546;28;20210;-73
2023/12/22 08:29:46;;;;;;;19.47;11.97;;;;;;;4.67;72.94;95210.75;4965183;28;20190;-74
2023/12/22 08:32:15;;;;;;;19.57;12.57;;;;;;;4.90;72.39;95236.81;4963593;28;20563;-75
2023/12/22 08:34:45;;;;;;;22.83;16.07;;;;;;;4.95;72.21;95232.28;4951750;28;20249;-79
2023/12/22 08:37:16;;;;;;;19.33;13.50;;;;;;;4.94;72.02;95222.13;4951427;28;20266;-76
2023/12/22 08:39:44;;;;;;;18.97;13.20;;;;;;;5.07;71.88;95237.69;4949204;28;20201;-74
2023/12/22 08:42:12;;;;;;;30.77;14.93;;;;;;;5.28;71.98;95219.41;4949761;28;20229;-77
2023/12/22 08:44:52;;;;;;;25.30;14.50;;;;;;;5.32;72.19;95202.09;4949462;28;20193;-77
2023/12/22 08:47:20;;;;;;;44.93;22.57;;;;;;;5.52;70.46;95217.25;4946300;28;20312;-73
2023/12/22 08:49:47;;;;;;;34.57;19.10;;;;;;;5.69;69.57;95219.69;4934650;28;20190;-77
2023/12/22 08:52:16;;;;;;;28.10;15.10;;;;;;;5.66;69.24;95212.16;4949583;29;20208;-73
2023/12/22 08:54:44;;;;;;;25.53;13.77;;;;;;;5.79;68.57;95218.25;4950390;28;20203;-73
2023/12/22 08:57:13;;;;;;;27.53;16.60;;;;;;;5.83;68.60;95211.22;4949531;29;20211;-73
2023/12/22 08:59:41;;;;;;;23.23;15.50;;;;;;;5.85;69.48;95217.13;4950649;28;20623;-75
2023/12/22 09:02:08;;;;;;;27.73;15.00;;;;;;;5.84;70.12;95208.59;4951410;28;20269;-73
2023/12/22 09:04:36;;;;;;;24.77;14.47;;;;;;;6.00;68.78;95178.53;4949212;28;20290;-72
2023/12/22 09:07:05;;;;;;;21.83;12.30;;;;;;;6.04;67.80;95212.59;4950875;28;20571;-73
2023/12/22 09:09:35;;;;;;;21.43;11.97;;;;;;;5.97;68.56;95212.13;4948661;28;20242;-73
2023/12/22 09:12:04;;;;;;;24.53;12.67;;;;;;;5.94;68.69;95203.75;4951670;28;20224;-73
2023/12/22 09:14:31;;;;;;;22.07;13.17;;;;;;;6.03;70.01;95193.78;4949424;28;20214;-74
2023/12/22 09:16:59;;;;;;;30.20;15.97;;;;;;;6.18;70.13;95198.03;4951073;28;20227;-76
2023/12/22 09:19:34;;;;;;;21.97;14.03;;;;;;;6.04;69.83;95179.22;4934770;28;20204;-77
2023/12/22 09:22:02;;;;;;;23.43;13.73;;;;;;;5.87;70.21;95172.47;4950736;28;20227;-74
2023/12/22 09:24:31;;;;;;;29.00;16.60;;;;;;;5.94;71.46;95181.47;4951844;28;20298;-74
2023/12/22 09:27:02;;;;;;;26.67;15.33;;;;;;;5.88;71.33;95158.69;4950480;28;20210;-74
2023/12/22 09:29:35;;;;;;;29.83;16.40;;;;;;;5.72;72.39;95138.19;4949939;28;20195;-74
2023/12/22 09:32:03;;;;;;;20.67;13.57;;;;;;;5.96;70.95;95148.81;4949415;28;20203;-74
2023/12/22 09:34:30;;;;;;;18.53;12.17;;;;;;;5.91;70.98;95153.41;4933396;28;20554;-74
2023/12/22 09:36:58;;;;;;;23.13;13.00;;;;;;;5.98;71.95;95151.28;4951262;28;20231;-74
2023/12/22 09:39:28;;;;;;;27.63;13.93;;;;;;;6.01;71.65;95123.69;4949039;28;20215;-73
2023/12/22 09:41:59;;;;;;;22.03;13.67;;;;;;;6.14;71.25;95139.22;4951226;28;20621;-74
2023/12/22 09:44:30;;;;;;;18.60;12.53;;;;;;;6.13;70.50;95143.50;4933117;28;20302;-76
2023/12/22 09:47:00;;;;;;;29.37;14.77;;;;;;;5.93;70.19;95125.88;4950889;28;20239;-73
2023/12/22 09:49:29;;;;;;;24.93;14.90;;;;;;;6.09;70.92;95147.19;4959035;28;20201;-74
2023/12/22 09:52:03;;;;;;;24.13;15.33;;;;;;;5.98;71.02;95148.69;4970066;28;20224;-80
2023/12/22 09:54:33;;;;;;;25.00;13.83;;;;;;;5.83;70.92;95145.28;4970278;28;20210;-77
2023/12/22 09:57:03;;;;;;;24.20;13.50;;;;;;;5.92;71.50;95149.91;4968748;28;20213;-79
2023/12/22 09:59:50;;;;;;;17.13;11.77;;;;;;;5.81;71.20;95154.81;4969819;28;20557;-76
2023/12/22 10:02:19;;;;;;;17.67;11.93;;;;;;;5.82;71.71;95151.31;4968599;28;20720;-79
2023/12/22 10:04:55;;;;;;;18.03;12.77;;;;;;;5.72;72.81;95152.75;4969686;28;20680;-77
2023/12/22 10:07:26;;;;;;;18.33;11.37;;;;;;;5.69;72.62;95147.78;4968518;28;20223;-74
2023/12/22 10:09:56;;;;;;;22.53;13.03;;;;;;;5.63;72.43;95135.28;4969033;28;20197;-74
2023/12/22 10:12:32;;;;;;;17.00;11.40;;;;;;;5.71;72.04;95139.09;4969832;28;20192;-74
2023/12/22 10:15:00;;;;;;;17.33;12.17;;;;;;;5.81;72.39;95141.97;4969261;28;20605;-76
2023/12/22 10:17:34;;;;;;;21.87;12.00;;;;;;;5.97;71.95;95153.03;4967467;28;20247;-75
2023/12/22 10:20:03;;;;;;;19.03;11.97;;;;;;;6.08;71.35;95155.00;4968976;28;20710;-76
2023/12/22 10:22:34;;;;;;;17.90;12.20;;;;;;;6.03;70.86;95152.69;4983343;28;20315;-78
2023/12/22 10:25:03;;;;;;;21.03;13.00;;;;;;;5.97;72.04;95157.34;4968348;28;20203;-76
2023/12/22 10:27:37;;;;;;;21.13;12.87;;;;;;;6.15;71.37;95161.41;4968059;28;20206;-73
2023/12/22 10:30:06;;;;;;;21.93;13.37;;;;;;;6.03;72.32;95155.25;4969832;28;20690;-78
2023/12/22 10:32:40;;;;;;;20.63;13.63;;;;;;;6.15;71.76;95140.84;4967536;28;20256;-76
2023/12/22 10:35:09;;;;;;;19.33;12.23;;;;;;;6.29;72.85;95138.28;4969293;28;20190;-75
2023/12/22 10:37:36;;;;;;;32.37;14.47;;;;;;;6.29;71.72;95133.97;4969388;28;20674;-76
2023/12/22 10:40:05;;;;;;;21.90;14.53;;;;;;;6.12;71.53;95113.59;4951690;28;20199;-77
2023/12/22 10:42:35;;;;;;;20.50;12.43;;;;;;;6.26;73.04;95126.47;4969181;28;20260;-78
2023/12/22 10:45:03;;;;;;;20.03;12.87;;;;;;;6.27;72.50;95125.53;4968467;28;20213;-75
2023/12/22 10:47:33;;;;;;;31.33;15.50;;;;;;;6.32;71.97;95133.81;4968956;28;20198;-78
2023/12/22 10:50:04;;;;;;;22.23;13.43;;;;;;;6.32;72.90;95141.53;4968748;28;20205;-76
2023/12/22 10:52:34;;;;;;;25.67;16.17;;;;;;;6.45;72.29;95134.69;4968775;28;20696;-77
2023/12/22 10:55:05;;;;;;;29.40;17.23;;;;;;;6.44;72.30;95109.94;4952466;28;20673;-77
2023/12/22 10:57:37;;;;;;;29.07;18.53;;;;;;;6.79;72.07;95130.09;4966968;28;20252;-77
2023/12/22 11:00:09;;;;;;;46.37;20.67;;;;;;;6.84;73.80;95128.06;4968222;28;20238;-77
2023/12/22 11:02:41;;;;;;;27.40;16.17;;;;;;;6.89;71.77;95126.03;4967565;28;20311;-76
2023/12/22 11:05:12;;;;;;;27.37;16.70;;;;;;;6.98;72.06;95113.44;4968864;28;20222;-74
2023/12/22 11:07:46;;;;;;;24.37;16.17;;;;;;;6.90;71.51;95119.97;4954584;28;20231;-75
2023/12/22 11:10:17;;;;;;;25.57;15.70;;;;;;;6.84;72.89;95110.06;4968204;28;20201;-76
2023/12/22 11:12:49;;;;;;;26.43;15.97;;;;;;;6.78;72.11;95070.09;4967868;28;20301;-74
2023/12/22 11:15:18;;;;;;;23.87;14.80;;;;;;;7.03;71.82;95075.34;4966850;28;20600;-75
2023/12/22 11:17:48;;;;;;;25.23;16.07;;;;;;;7.15;70.98;95050.59;4968871;28;20247;-75
2023/12/22 11:20:21;;;;;;;26.10;16.87;;;;;;;7.28;70.59;95064.31;4966951;28;20259;-76
2023/12/22 11:22:52;;;;;;;31.37;17.20;;;;;;;7.48;70.68;95056.13;4966991;28;20235;-74
2023/12/22 11:25:22;;;;;;;32.13;18.10;;;;;;;7.74;69.60;95047.53;4967401;28;20199;-74
2023/12/22 11:27:52;;;;;;;36.90;18.23;;;;;;;7.61;69.69;95049.25;4967842;28;20283;-73
2023/12/22 11:30:21;;;;;;;34.10;20.23;;;;;;;7.71;67.90;95059.75;4968148;28;20204;-73
2023/12/22 11:32:50;;;;;;;36.83;17.63;;;;;;;7.67;67.83;95048.84;4967648;28;20193;-73
2023/12/22 11:35:17;;;;;;;37.53;18.73;;;;;;;8.02;66.99;95047.31;4969136;28;20291;-74
2023/12/22 11:37:50;;;;;;;29.63;15.50;;;;;;;8.18;66.40;95034.22;4966970;28;20235;-75
2023/12/22 11:40:21;;;;;;;25.87;12.13;;;;;;;8.32;65.01;95030.72;4967537;28;20208;-73